createdAt,value
2017-08-28T00:00:07.933Z,50.1
2017-08-28T00:02:05.943Z,50.1
2017-08-28T00:04:05.695Z,50.1
2017-08-28T00:06:15.548Z,50.2
2017-08-28T00:08:05.468Z,50.2
2017-08-28T00:10:07.760Z,50
2017-08-28T00:12:15.597Z,50
2017-08-28T00:14:07.877Z,50
2017-08-28T00:16:05.154Z,50
2017-08-28T00:18:07.642Z,49.9
2017-08-28T00:20:05.527Z,49.9
2017-08-28T00:22:05.229Z,49.9
2017-08-28T00:24:05.949Z,49.9
2017-08-28T00:26:05.794Z,49.9
2017-08-28T00:28:05.473Z,49.9
2017-08-28T00:30:05.211Z,49.9
2017-08-28T00:32:06.000Z,50
2017-08-28T00:34:08.264Z,49.8
2017-08-28T00:36:05.934Z,49.7
2017-08-28T00:38:05.797Z,49.8
2017-08-28T00:40:05.813Z,49.8
2017-08-28T00:42:05.519Z,49.7
2017-08-28T00:44:08.390Z,49.7
2017-08-28T00:46:05.148Z,49.7
2017-08-28T00:48:05.936Z,49.8
2017-08-28T00:50:05.696Z,49.7
2017-08-28T00:52:05.904Z,49.7
2017-08-28T00:54:05.590Z,49.7
2017-08-28T00:56:05.474Z,49.8
2017-08-28T00:58:05.309Z,49.7
2017-08-28T01:00:05.048Z,49.7
2017-08-28T01:02:07.857Z,49.7
2017-08-28T01:04:05.602Z,49.7
2017-08-28T01:06:07.968Z,49.7
2017-08-28T01:08:05.668Z,49.5
2017-08-28T01:10:05.532Z,49.5
2017-08-28T01:12:07.846Z,49.5
2017-08-28T01:14:05.617Z,49.5
2017-08-28T01:16:05.314Z,49.5
2017-08-28T01:18:05.268Z,49.4
2017-08-28T01:20:06.133Z,49.4
2017-08-28T01:22:15.963Z,49.4
2017-08-28T01:24:05.647Z,49.4
2017-08-28T01:26:05.335Z,49.4
2017-08-28T01:28:05.248Z,49.3
2017-08-28T01:30:08.457Z,49.1
2017-08-28T01:32:05.506Z,49.1
2017-08-28T01:34:10.334Z,49.1
2017-08-28T01:36:05.061Z,49.1
2017-08-28T01:38:05.852Z,49.1
2017-08-28T01:40:05.574Z,49.1
2017-08-28T01:42:05.357Z,49.1
2017-08-28T01:44:05.719Z,49.1
2017-08-28T01:46:05.416Z,49.1
2017-08-28T01:48:10.710Z,49.1
2017-08-28T01:50:05.484Z,49.1
2017-08-28T01:52:05.213Z,49.1
2017-08-28T01:54:10.942Z,48.8
2017-08-28T01:56:05.664Z,49
2017-08-28T01:58:13.013Z,49.1
2017-08-28T02:00:05.790Z,49.1
2017-08-28T02:02:08.113Z,48.9
2017-08-28T02:04:05.414Z,49.1
2017-08-28T02:06:05.116Z,48.9
2017-08-28T02:08:05.864Z,48.9
2017-08-28T02:10:05.538Z,48.9
2017-08-28T02:12:05.245Z,48.8
2017-08-28T02:14:05.767Z,48.9
2017-08-28T02:16:05.652Z,48.9
2017-08-28T02:18:05.789Z,48.9
2017-08-28T02:20:05.681Z,48.9
2017-08-28T02:22:05.436Z,48.9
2017-08-28T02:24:13.253Z,48.8
2017-08-28T02:26:05.975Z,48.8
2017-08-28T02:28:05.713Z,48.8
2017-08-28T02:30:13.007Z,48.8
2017-08-28T02:32:07.915Z,48.9
2017-08-28T02:34:10.693Z,48.9
2017-08-28T02:36:05.377Z,48.9
2017-08-28T02:38:05.225Z,48.8
2017-08-28T02:40:05.949Z,48.9
2017-08-28T02:42:05.671Z,48.8
2017-08-28T02:44:05.538Z,48.8
2017-08-28T02:46:05.230Z,48.8
2017-08-28T02:48:06.042Z,48.6
2017-08-28T02:50:05.890Z,48.6
2017-08-28T02:52:05.598Z,48.6
2017-08-28T02:54:07.838Z,48.5
2017-08-28T02:56:05.719Z,48.5
2017-08-28T02:58:05.426Z,48.5
2017-08-28T03:00:05.138Z,48.5
2017-08-28T03:02:06.211Z,48.5
2017-08-28T03:04:08.483Z,48.3
2017-08-28T03:06:05.207Z,48.6
2017-08-28T03:08:05.681Z,48.5
2017-08-28T03:10:10.466Z,48.3
2017-08-28T03:12:05.175Z,48.3
2017-08-28T03:14:05.989Z,48.2
2017-08-28T03:16:05.698Z,48.3
2017-08-28T03:18:10.235Z,48.3
2017-08-28T03:20:05.532Z,48.3
2017-08-28T03:22:05.243Z,48.3
2017-08-28T03:24:05.924Z,48.3
2017-08-28T03:26:05.178Z,48.3
2017-08-28T03:28:08.059Z,48.3
2017-08-28T03:30:05.766Z,48.3
2017-08-28T03:32:05.532Z,48.3
2017-08-28T03:34:05.298Z,48.2
2017-08-28T03:36:12.754Z,48
2017-08-28T03:38:08.258Z,48
2017-08-28T03:40:05.048Z,48
2017-08-28T03:42:05.791Z,48.3
2017-08-28T03:44:05.099Z,48.3
2017-08-28T03:46:08.384Z,48.1
2017-08-28T03:48:05.727Z,48.4
2017-08-28T03:50:08.663Z,48
2017-08-28T03:52:06.046Z,48
2017-08-28T03:54:12.794Z,48.1
2017-08-28T03:56:05.547Z,48.1
2017-08-28T03:58:05.296Z,48
2017-08-28T04:00:05.016Z,48.1
2017-08-28T04:02:05.929Z,48.1
2017-08-28T04:04:08.144Z,48.1
2017-08-28T04:06:08.378Z,48.1
2017-08-28T04:08:05.256Z,48.1
2017-08-28T04:10:08.490Z,48.2
2017-08-28T04:12:07.766Z,48.2
2017-08-28T04:14:05.511Z,48.2
2017-08-28T04:16:05.177Z,48.2
2017-08-28T04:18:07.637Z,48.2
2017-08-28T04:20:05.511Z,48.2
2017-08-28T04:22:05.263Z,48.3
2017-08-28T04:24:06.126Z,48.3
2017-08-28T04:26:08.383Z,48.3
2017-08-28T04:28:05.108Z,48.3
2017-08-28T04:30:05.868Z,48.1
2017-08-28T04:32:05.752Z,48.2
2017-08-28T04:34:05.514Z,48.2
2017-08-28T04:36:07.793Z,48.2
2017-08-28T04:38:05.807Z,48.2
2017-08-28T04:40:14.448Z,48.6
2017-08-28T04:42:10.245Z,48.9
2017-08-28T04:44:11.316Z,48.8
2017-08-28T04:46:06.024Z,48.7
2017-08-28T04:48:05.860Z,48.8
2017-08-28T04:50:05.866Z,48.8
2017-08-28T04:52:05.687Z,48.7
2017-08-28T04:54:11.068Z,48.7
2017-08-28T04:56:05.967Z,48.7
2017-08-28T04:58:13.269Z,49
2017-08-28T05:00:05.989Z,49
2017-08-28T05:02:05.305Z,49
2017-08-28T05:04:05.057Z,48.9
2017-08-28T05:06:08.362Z,49
2017-08-28T05:08:05.285Z,49
2017-08-28T05:10:08.105Z,49
2017-08-28T05:12:06.181Z,49
2017-08-28T05:14:05.905Z,48.9
2017-08-28T05:16:08.198Z,48.7
2017-08-28T05:18:05.131Z,48.7
2017-08-28T05:20:05.467Z,48.8
2017-08-28T05:22:05.227Z,48.9
2017-08-28T05:24:10.476Z,48.8
2017-08-28T05:26:10.801Z,48.8
2017-08-28T05:28:05.933Z,48.8
2017-08-28T05:30:08.189Z,48.8
2017-08-28T05:32:06.047Z,48.8
2017-08-28T05:34:05.787Z,48.8
2017-08-28T05:36:10.074Z,48.7
2017-08-28T05:38:08.606Z,48.9
2017-08-28T05:40:05.314Z,48.9
2017-08-28T05:42:08.087Z,49
2017-08-28T05:44:08.007Z,49
2017-08-28T05:46:10.773Z,49.1
2017-08-28T05:48:05.490Z,49.1
2017-08-28T05:50:05.450Z,49.2
2017-08-28T05:52:05.712Z,49.2
2017-08-28T05:54:05.473Z,49.1
2017-08-28T05:56:05.908Z,49.1
2017-08-28T05:58:05.719Z,49.1
2017-08-28T06:00:05.504Z,49.1
2017-08-28T06:02:05.436Z,49.1
2017-08-28T06:04:15.317Z,49.5
2017-08-28T06:06:05.192Z,49.5
2017-08-28T06:08:08.568Z,49.5
2017-08-28T06:10:07.902Z,49.5
2017-08-28T06:12:05.618Z,49.3
2017-08-28T06:14:10.925Z,49.7
2017-08-28T06:16:05.607Z,49.4
2017-08-28T06:18:08.036Z,49.6
2017-08-28T06:20:08.351Z,49.6
2017-08-28T06:22:05.086Z,49.6
2017-08-28T06:24:05.756Z,49.6
2017-08-28T06:26:05.562Z,49.6
2017-08-28T06:28:07.823Z,49.7
2017-08-28T06:30:05.586Z,49.7
2017-08-28T06:32:05.622Z,49.7
2017-08-28T06:34:05.327Z,49.9
2017-08-28T06:36:05.519Z,50
2017-08-28T06:38:07.895Z,49.9
2017-08-28T06:40:05.581Z,49.9
2017-08-28T06:42:05.597Z,50.1
2017-08-28T06:44:05.303Z,50.1
2017-08-28T06:46:06.012Z,50
2017-08-28T06:48:05.441Z,50
2017-08-28T06:50:15.644Z,50.3
2017-08-28T06:52:05.377Z,50.3
2017-08-28T06:54:07.658Z,50.2
2017-08-28T06:56:05.466Z,50.2
2017-08-28T06:58:05.148Z,50.4
2017-08-28T07:00:06.622Z,50.2
2017-08-28T07:02:05.703Z,50.2
2017-08-28T07:04:05.788Z,50.2
2017-08-28T07:06:08.024Z,50.3
2017-08-28T07:08:05.865Z,50.3
2017-08-28T07:10:05.131Z,50.4
2017-08-28T07:12:21.024Z,50.3
2017-08-28T07:14:06.087Z,50.3
2017-08-28T07:16:15.936Z,50.1
2017-08-28T07:18:05.921Z,50.1
2017-08-28T07:20:05.695Z,50.3
2017-08-28T07:22:08.443Z,50.5
2017-08-28T07:24:05.102Z,50.5
2017-08-28T07:26:06.011Z,50.3
2017-08-28T07:28:05.752Z,50.5
2017-08-28T07:30:05.591Z,50.4
2017-08-28T07:32:05.481Z,50.4
2017-08-28T07:34:08.265Z,50.5
2017-08-28T07:36:06.130Z,50.5
2017-08-28T07:38:05.998Z,50.5
2017-08-28T07:40:05.775Z,50.7
2017-08-28T07:42:05.500Z,50.7
2017-08-28T07:44:05.239Z,50.6
2017-08-28T07:46:05.942Z,50.7
2017-08-28T07:48:10.308Z,50.6
2017-08-28T07:50:06.075Z,50.6
2017-08-28T07:52:05.481Z,50.9
2017-08-28T07:54:07.729Z,50.8
2017-08-28T07:56:10.686Z,50.8
2017-08-28T07:58:05.404Z,50.8
2017-08-28T08:00:05.080Z,51
2017-08-28T08:02:18.469Z,50.9
2017-08-28T08:04:12.788Z,51
2017-08-28T08:06:05.555Z,51
2017-08-28T08:08:05.482Z,51
2017-08-28T08:10:05.167Z,50.9
2017-08-28T08:12:07.947Z,50.9
2017-08-28T08:14:08.247Z,51
2017-08-28T08:16:08.626Z,51
2017-08-28T08:18:05.549Z,51
2017-08-28T08:20:05.364Z,51
2017-08-28T08:22:07.583Z,51.1
2017-08-28T08:24:05.426Z,51.1
2017-08-28T08:26:05.870Z,51.1
2017-08-28T08:28:10.648Z,50.8
2017-08-28T08:30:05.429Z,50.8
2017-08-28T08:32:05.270Z,51
2017-08-28T08:34:05.491Z,50.9
2017-08-28T08:36:05.215Z,50.9
2017-08-28T08:38:11.039Z,50.8
2017-08-28T08:40:15.998Z,50.9
2017-08-28T08:42:10.781Z,50.9
2017-08-28T08:44:05.517Z,50.7
2017-08-28T08:46:05.333Z,50.9
2017-08-28T08:48:05.079Z,50.9
2017-08-28T08:50:08.324Z,50.9
2017-08-28T08:52:12.633Z,51
2017-08-28T08:54:05.308Z,51
2017-08-28T08:56:07.897Z,50.9
2017-08-28T08:58:05.666Z,50.9
2017-08-28T09:00:05.443Z,50.9
2017-08-28T09:02:05.234Z,51
2017-08-28T09:04:05.913Z,50.9
2017-08-28T09:06:05.196Z,51
2017-08-28T09:08:05.942Z,50.8
2017-08-28T09:10:05.719Z,50.8
2017-08-28T09:12:05.626Z,50.8
2017-08-28T09:14:07.830Z,50.8
2017-08-28T09:16:05.515Z,50.9
2017-08-28T09:18:05.420Z,50.9
2017-08-28T09:20:07.680Z,50.9
2017-08-28T09:22:07.953Z,50.8
2017-08-28T09:24:05.710Z,50.9
2017-08-28T09:26:08.140Z,50.9
2017-08-28T09:28:05.927Z,50.9
2017-08-28T09:30:08.168Z,51
2017-08-28T09:32:05.692Z,50.9
2017-08-28T09:34:08.526Z,50.8
2017-08-28T09:36:05.290Z,51
2017-08-28T09:38:06.328Z,51
2017-08-28T09:40:12.607Z,51
2017-08-28T09:42:05.262Z,51
2017-08-28T09:44:06.237Z,51
2017-08-28T09:46:05.984Z,51.1
2017-08-28T09:48:10.317Z,50.8
2017-08-28T09:50:06.373Z,51
2017-08-28T09:52:05.644Z,50.8
2017-08-28T09:54:05.370Z,50.7
2017-08-28T09:56:05.105Z,50.6
2017-08-28T09:58:06.010Z,50.7
2017-08-28T10:00:05.776Z,50.7
2017-08-28T10:02:06.378Z,50.6
2017-08-28T10:04:07.554Z,50.8
2017-08-28T10:06:05.242Z,50.8
2017-08-28T10:08:08.641Z,50.8
2017-08-28T10:10:10.445Z,50.8
2017-08-28T10:12:05.198Z,50.8
2017-08-28T10:14:06.243Z,50.9
2017-08-28T10:16:05.512Z,51
2017-08-28T10:18:08.210Z,51
2017-08-28T10:20:06.236Z,51
2017-08-28T10:22:06.007Z,51
2017-08-28T10:24:05.771Z,50.9
2017-08-28T10:26:07.994Z,51.2
2017-08-28T10:28:05.702Z,51
2017-08-28T10:30:05.398Z,51.2
2017-08-28T10:32:05.314Z,51.2
2017-08-28T10:34:05.987Z,51.3
2017-08-28T10:36:10.511Z,51.3
2017-08-28T10:38:05.592Z,51.3
2017-08-28T10:40:06.265Z,51.3
2017-08-28T10:42:10.365Z,51.3
2017-08-28T10:44:05.220Z,51.3
2017-08-28T10:46:05.907Z,51.5
2017-08-28T10:48:08.021Z,51.5
2017-08-28T10:50:05.365Z,51.5
2017-08-28T10:52:05.868Z,51.5
2017-08-28T10:54:05.530Z,51.7
2017-08-28T10:56:05.285Z,51.5
2017-08-28T10:58:06.162Z,51.7
2017-08-28T11:00:05.878Z,51.6
2017-08-28T11:02:05.681Z,51.6
2017-08-28T11:04:05.569Z,51.6
2017-08-28T11:06:05.395Z,51.8
2017-08-28T11:08:05.175Z,51.9
2017-08-28T11:10:05.886Z,52
2017-08-28T11:12:05.596Z,52
2017-08-28T11:14:05.536Z,52.1
2017-08-28T11:16:05.446Z,52.1
2017-08-28T11:18:05.884Z,52.1
2017-08-28T11:20:05.311Z,52.1
2017-08-28T11:22:05.013Z,52.1
2017-08-28T11:24:05.753Z,52.2
2017-08-28T11:26:05.530Z,52.2
2017-08-28T11:28:07.739Z,52.2
2017-08-28T11:30:05.496Z,52.2
2017-08-28T11:32:07.847Z,52.2
2017-08-28T11:34:06.355Z,52.2
2017-08-28T11:36:05.420Z,52.3
2017-08-28T11:38:10.142Z,52.3
2017-08-28T11:40:10.909Z,52.4
2017-08-28T11:42:06.532Z,52.3
2017-08-28T11:44:05.379Z,52.7
2017-08-28T11:46:05.065Z,52.9
2017-08-28T11:48:06.033Z,53
2017-08-28T11:50:05.902Z,52.4
2017-08-28T11:52:08.240Z,52.6
2017-08-28T11:54:05.973Z,52.6
2017-08-28T11:56:10.893Z,52.4
2017-08-28T11:58:10.703Z,52.4
2017-08-28T12:00:05.461Z,52.5
2017-08-28T12:02:05.186Z,52.4
2017-08-28T12:04:05.905Z,52.4
2017-08-28T12:06:05.639Z,52.4
2017-08-28T12:08:11.078Z,52.3
2017-08-28T12:10:05.716Z,52.3
2017-08-28T12:12:05.997Z,52.3
2017-08-28T12:14:05.840Z,52.4
2017-08-28T12:16:05.511Z,52.4
2017-08-28T12:18:05.914Z,52.3
2017-08-28T12:20:08.198Z,52.2
2017-08-28T12:22:10.510Z,52.2
2017-08-28T12:24:05.250Z,52.1
2017-08-28T12:26:06.303Z,52.1
2017-08-28T12:28:08.494Z,52.2
2017-08-28T12:30:05.197Z,52.1
2017-08-28T12:32:05.916Z,52.2
2017-08-28T12:34:05.138Z,52.3
2017-08-28T12:36:05.886Z,52.5
2017-08-28T12:38:05.778Z,52.4
2017-08-28T12:40:05.815Z,52.5
2017-08-28T12:42:05.561Z,52.4
2017-08-28T12:44:05.584Z,52.5
2017-08-28T12:46:05.838Z,52.5
2017-08-28T12:48:05.104Z,52.4
2017-08-28T12:50:05.799Z,52.3
2017-08-28T12:52:05.486Z,52.3
2017-08-28T12:54:05.218Z,52.4
2017-08-28T12:56:05.538Z,52.3
2017-08-28T12:58:05.788Z,52.3
2017-08-28T13:00:05.493Z,52.4
2017-08-28T13:02:05.284Z,52.3
2017-08-28T13:04:06.972Z,52.3
2017-08-28T13:06:05.716Z,52.3
2017-08-28T13:08:05.480Z,52.4
2017-08-28T13:10:05.171Z,52.4
2017-08-28T13:12:08.629Z,52.3
2017-08-28T13:14:05.370Z,52.3
2017-08-28T13:16:08.106Z,52.2
2017-08-28T13:18:06.017Z,52.1
2017-08-28T13:20:06.074Z,52.2
2017-08-28T13:22:06.283Z,52.3
2017-08-28T13:24:05.968Z,52.2
2017-08-28T13:26:05.656Z,52.4
2017-08-28T13:28:10.754Z,52.2
2017-08-28T13:30:08.708Z,52.5
2017-08-28T13:32:05.416Z,52.4
2017-08-28T13:34:05.127Z,52.6
2017-08-28T13:36:10.841Z,52.3
2017-08-28T13:38:05.751Z,52.3
2017-08-28T13:40:07.958Z,52.7
2017-08-28T13:42:06.664Z,52.5
2017-08-28T13:44:05.561Z,52.7
2017-08-28T13:46:05.261Z,52.8
2017-08-28T13:48:05.981Z,53.2
2017-08-28T13:50:05.706Z,52.8
2017-08-28T13:52:05.566Z,52.8
2017-08-28T13:54:05.343Z,52.9
2017-08-28T13:56:10.172Z,52.8
2017-08-28T13:58:05.935Z,52.9
2017-08-28T14:00:05.790Z,52.8
2017-08-28T14:02:05.556Z,52.5
2017-08-28T14:04:05.570Z,52.4
2017-08-28T14:06:05.829Z,52.1
2017-08-28T14:08:05.699Z,52.3
2017-08-28T14:10:05.429Z,52.1
2017-08-28T14:12:05.224Z,52.2
2017-08-28T14:14:05.598Z,52.1
2017-08-28T14:16:16.176Z,52.1
2017-08-28T14:18:05.656Z,51.9
2017-08-28T14:20:05.512Z,52.1
2017-08-28T14:22:05.274Z,52.1
2017-08-28T14:24:05.979Z,51.8
2017-08-28T14:26:08.393Z,51.7
2017-08-28T14:28:05.620Z,51.7
2017-08-28T14:30:05.572Z,51.8
2017-08-28T14:32:05.439Z,51.6
2017-08-28T14:34:05.162Z,51.7
2017-08-28T14:36:10.459Z,51.8
2017-08-28T14:38:05.334Z,51.6
2017-08-28T14:40:05.045Z,51.7
2017-08-28T14:42:05.772Z,51.8
2017-08-28T14:44:05.177Z,51.9
2017-08-28T14:46:05.948Z,51.8
2017-08-28T14:48:15.799Z,51.8
2017-08-28T14:50:05.699Z,51.8
2017-08-28T14:52:08.029Z,51.9
2017-08-28T14:54:05.758Z,51.9
2017-08-28T14:56:05.500Z,51.8
2017-08-28T14:58:05.163Z,51.7
2017-08-28T15:00:05.816Z,51.7
2017-08-28T15:02:05.653Z,51.7
2017-08-28T15:04:05.585Z,51.9
2017-08-28T15:06:05.293Z,51.8
2017-08-28T15:08:05.040Z,51.8
2017-08-28T15:10:10.350Z,51.8
2017-08-28T15:12:05.048Z,51.8
2017-08-28T15:14:05.763Z,51.9
2017-08-28T15:16:05.500Z,52.1
2017-08-28T15:18:05.416Z,52.5
2017-08-28T15:20:05.249Z,52.3
2017-08-28T15:22:08.493Z,52.3
2017-08-28T15:24:05.715Z,52.3
2017-08-28T15:26:05.528Z,52.4
2017-08-28T15:28:05.286Z,52.4
2017-08-28T15:30:05.035Z,52.5
2017-08-28T15:32:05.807Z,52.4
2017-08-28T15:34:05.520Z,52.5
2017-08-28T15:36:05.221Z,52.4
2017-08-28T15:38:05.945Z,52.3
2017-08-28T15:40:05.665Z,52.3
2017-08-28T15:42:05.373Z,52.5
2017-08-28T15:44:05.213Z,52.4
2017-08-28T15:46:08.440Z,52.5
2017-08-28T15:48:05.188Z,52.5
2017-08-28T15:50:05.934Z,52.4
2017-08-28T15:52:05.658Z,52.4
2017-08-28T15:54:05.376Z,52.4
2017-08-28T15:56:05.265Z,52.4
2017-08-28T15:58:05.186Z,52.4
2017-08-28T16:00:05.911Z,52.5
2017-08-28T16:02:05.806Z,52.5
2017-08-28T16:04:08.136Z,52.3
2017-08-28T16:06:05.859Z,52.4
2017-08-28T16:08:06.146Z,52.3
2017-08-28T16:10:05.816Z,52.3
2017-08-28T16:12:05.544Z,52.3
2017-08-28T16:14:10.230Z,52.3
2017-08-28T16:16:05.922Z,52.4
2017-08-28T16:18:05.806Z,52.4
2017-08-28T16:20:05.865Z,52.4
2017-08-28T16:22:08.098Z,52.4
2017-08-28T16:24:05.855Z,52.4
2017-08-28T16:26:05.576Z,52.3
2017-08-28T16:28:05.315Z,52.4
2017-08-28T16:30:05.535Z,52.4
2017-08-28T16:32:07.937Z,52.4
2017-08-28T16:34:05.626Z,52.3
2017-08-28T16:36:05.585Z,52.3
2017-08-28T16:38:05.351Z,52.4
2017-08-28T16:40:10.275Z,52.5
2017-08-28T16:42:06.005Z,52.5
2017-08-28T16:44:08.285Z,52.5
2017-08-28T16:46:05.483Z,52.5
2017-08-28T16:48:05.278Z,52.6
2017-08-28T16:50:05.137Z,52.6
2017-08-28T16:52:05.828Z,52.6
2017-08-28T16:54:08.054Z,52.6
2017-08-28T16:56:08.392Z,52.6
2017-08-28T16:58:07.643Z,52.6
2017-08-28T17:00:05.432Z,52.6
2017-08-28T17:02:05.314Z,52.7
2017-08-28T17:04:05.007Z,52.6
2017-08-28T17:06:05.194Z,52.6
2017-08-28T17:08:06.021Z,52.8
2017-08-28T17:10:05.825Z,52.6
2017-08-28T17:12:07.655Z,52.6
2017-08-28T17:14:08.118Z,52.6
2017-08-28T17:16:05.311Z,52.6
2017-08-28T17:18:05.241Z,52.7
2017-08-28T17:20:08.118Z,52.7
2017-08-28T17:22:05.849Z,52.7
2017-08-28T17:24:05.536Z,52.8
2017-08-28T17:26:13.160Z,52.8
2017-08-28T17:28:06.141Z,52.6
2017-08-28T17:30:05.854Z,52.6
2017-08-28T17:32:05.936Z,52.6
2017-08-28T17:34:05.216Z,52.7
2017-08-28T17:36:06.046Z,52.7
2017-08-28T17:38:10.504Z,52.7
2017-08-28T17:40:10.312Z,52.7
2017-08-28T17:42:05.904Z,52.7
2017-08-28T17:44:05.753Z,52.7
2017-08-28T17:46:05.500Z,52.8
2017-08-28T17:48:05.797Z,52.8
2017-08-28T17:50:05.530Z,52.9
2017-08-28T17:52:05.795Z,52.9
2017-08-28T17:54:08.035Z,52.9
2017-08-28T17:56:08.259Z,52.9
2017-08-28T17:58:05.954Z,52.7
2017-08-28T18:00:06.685Z,52.9
2017-08-28T18:02:05.486Z,52.8
2017-08-28T18:04:05.895Z,52.9
2017-08-28T18:06:05.611Z,52.8
2017-08-28T18:08:05.507Z,52.8
2017-08-28T18:10:06.018Z,52.8
2017-08-28T18:12:08.462Z,52.8
2017-08-28T18:14:05.529Z,52.8
2017-08-28T18:16:05.656Z,52.9
2017-08-28T18:18:05.102Z,52.9
2017-08-28T18:20:05.547Z,52.9
2017-08-28T18:22:08.417Z,53
2017-08-28T18:24:05.175Z,53
2017-08-28T18:26:05.829Z,53
2017-08-28T18:28:05.533Z,53
2017-08-28T18:30:05.250Z,53.1
2017-08-28T18:32:06.136Z,53.1
2017-08-28T18:34:06.048Z,53.1
2017-08-28T18:36:06.155Z,53.1
2017-08-28T18:38:05.469Z,53.1
2017-08-28T18:40:05.171Z,53.1
2017-08-28T18:42:05.363Z,53.1
2017-08-28T18:44:05.601Z,53.2
2017-08-28T18:46:05.897Z,53.2
2017-08-28T18:48:05.776Z,53.2
2017-08-28T18:50:05.351Z,53
2017-08-28T18:52:05.091Z,53.1
2017-08-28T18:54:08.331Z,53.2
2017-08-28T18:56:05.145Z,53.2
2017-08-28T18:58:06.010Z,53.2
2017-08-28T19:00:05.718Z,53.2
2017-08-28T19:02:11.628Z,53.2
2017-08-28T19:04:05.724Z,53.3
2017-08-28T19:06:10.473Z,53.3
2017-08-28T19:08:05.223Z,53.3
2017-08-28T19:10:06.010Z,53.3
2017-08-28T19:12:05.746Z,53.3
2017-08-28T19:14:05.548Z,53.3
2017-08-28T19:16:05.386Z,53.3
2017-08-28T19:18:05.800Z,53.4
2017-08-28T19:20:05.961Z,53.4
2017-08-28T19:22:05.682Z,53.4
2017-08-28T19:24:07.891Z,53.4
2017-08-28T19:26:08.416Z,53.5
2017-08-28T19:28:05.146Z,53.5
2017-08-28T19:30:05.459Z,53.5
2017-08-28T19:32:05.143Z,53.5
2017-08-28T19:34:05.297Z,53.4
2017-08-28T19:36:05.790Z,53.6
2017-08-28T19:38:05.621Z,53.6
2017-08-28T19:40:05.863Z,53.7
2017-08-28T19:42:05.554Z,53.7
2017-08-28T19:44:05.496Z,53.7
2017-08-28T19:46:10.256Z,53.6
2017-08-28T19:48:05.968Z,53.8
2017-08-28T19:50:06.005Z,53.9
2017-08-28T19:52:05.701Z,53.9
2017-08-28T19:54:05.425Z,53.9
2017-08-28T19:56:05.755Z,53.8
2017-08-28T19:58:08.435Z,54.1
2017-08-28T20:00:05.737Z,54
2017-08-28T20:02:06.337Z,54
2017-08-28T20:04:05.057Z,54
2017-08-28T20:06:05.779Z,54
2017-08-28T20:08:05.584Z,54
2017-08-28T20:10:05.279Z,54.1
2017-08-28T20:12:05.966Z,54.2
2017-08-28T20:14:06.020Z,54.2
2017-08-28T20:16:08.289Z,54.1
2017-08-28T20:18:10.272Z,54.1
2017-08-28T20:20:06.016Z,54.1
2017-08-28T20:22:08.250Z,54.1
2017-08-28T20:24:05.301Z,54.1
2017-08-28T20:26:12.875Z,54.1
2017-08-28T20:28:05.595Z,54.1
2017-08-28T20:30:05.314Z,54.1
2017-08-28T20:32:05.296Z,54.1
2017-08-28T20:34:05.019Z,54.1
2017-08-28T20:36:05.730Z,54.1
2017-08-28T20:38:05.278Z,54.1
2017-08-28T20:40:06.024Z,54.1
2017-08-28T20:42:05.114Z,54.2
2017-08-28T20:44:07.458Z,54.2
2017-08-28T20:46:06.170Z,54.1
2017-08-28T20:48:06.116Z,54.2
2017-08-28T20:50:16.025Z,54.2
2017-08-28T20:52:05.793Z,54.2
2017-08-28T20:54:05.062Z,54.2
2017-08-28T20:56:05.448Z,54.2
2017-08-28T20:58:05.140Z,54.2
2017-08-28T21:00:05.819Z,54.2
2017-08-28T21:02:05.048Z,54.2
2017-08-28T21:04:06.039Z,54.3
2017-08-28T21:06:05.748Z,54.3
2017-08-28T21:08:05.258Z,54.3
2017-08-28T21:10:06.015Z,54.3
2017-08-28T21:12:05.792Z,54.3
2017-08-28T21:14:05.576Z,54.3
2017-08-28T21:16:05.477Z,54.3
2017-08-28T21:18:05.324Z,54.3
2017-08-28T21:20:05.046Z,54.3
2017-08-28T21:22:05.717Z,54.3
2017-08-28T21:24:05.972Z,54.3
2017-08-28T21:26:05.806Z,54.3
2017-08-28T21:28:05.696Z,54.3
2017-08-28T21:30:05.412Z,54.3
2017-08-28T21:32:05.168Z,54.3
2017-08-28T21:34:05.963Z,54.3
2017-08-28T21:36:05.682Z,54.1
2017-08-28T21:38:13.085Z,54.3
2017-08-28T21:40:05.322Z,54.3
2017-08-28T21:42:05.175Z,54.1
2017-08-28T21:44:06.199Z,54.3
2017-08-28T21:46:05.138Z,54.3
2017-08-28T21:48:05.638Z,54
2017-08-28T21:50:06.040Z,54.1
2017-08-28T21:52:05.712Z,54.1
2017-08-28T21:54:08.493Z,54.1
2017-08-28T21:56:05.793Z,54.1
2017-08-28T21:58:05.838Z,54
2017-08-28T22:00:05.601Z,54.1
2017-08-28T22:02:07.989Z,54
2017-08-28T22:04:05.717Z,54.1
2017-08-28T22:06:05.985Z,54.2
2017-08-28T22:08:05.343Z,54.1
2017-08-28T22:10:08.225Z,54.2
2017-08-28T22:12:05.941Z,54
2017-08-28T22:14:05.791Z,54
2017-08-28T22:16:05.779Z,54
2017-08-28T22:18:05.680Z,54.2
2017-08-28T22:20:05.529Z,54
2017-08-28T22:22:05.191Z,54
2017-08-28T22:24:11.015Z,54
2017-08-28T22:26:06.147Z,54
2017-08-28T22:28:08.476Z,54
2017-08-28T22:30:05.671Z,54
2017-08-28T22:32:10.588Z,54
2017-08-28T22:34:05.259Z,54
2017-08-28T22:36:05.976Z,54
2017-08-28T22:38:05.809Z,54
2017-08-28T22:40:12.626Z,54
2017-08-28T22:42:07.886Z,54
2017-08-28T22:44:05.298Z,54
2017-08-28T22:46:05.058Z,54
2017-08-28T22:48:08.352Z,54
2017-08-28T22:50:05.380Z,54
2017-08-28T22:52:05.096Z,54
2017-08-28T22:54:08.360Z,54
2017-08-28T22:56:05.032Z,54
2017-08-28T22:58:05.732Z,54
2017-08-28T23:00:05.467Z,54
2017-08-28T23:02:05.256Z,54
2017-08-28T23:04:05.589Z,54
2017-08-28T23:06:05.279Z,54
2017-08-28T23:08:06.100Z,54
2017-08-28T23:10:05.756Z,54
2017-08-28T23:12:05.581Z,54.1
2017-08-28T23:14:11.323Z,54.1
2017-08-28T23:16:05.008Z,54
2017-08-28T23:18:05.940Z,54
2017-08-28T23:20:10.651Z,54.1
2017-08-28T23:22:05.458Z,54.1
2017-08-28T23:24:05.175Z,54.1
2017-08-28T23:26:06.089Z,54.1
2017-08-28T23:28:08.327Z,54.1
2017-08-28T23:30:10.077Z,54.1
2017-08-28T23:32:05.350Z,54.1
2017-08-28T23:38:05.728Z,54.1
2017-08-28T23:40:07.809Z,54.1
2017-08-28T23:42:05.996Z,54.1
2017-08-28T23:44:06.321Z,54.1
2017-08-28T23:46:05.265Z,54
2017-08-28T23:48:13.546Z,54
2017-08-28T23:50:05.593Z,54
2017-08-28T23:52:05.500Z,54
2017-08-28T23:54:06.054Z,54.1
2017-08-28T23:56:06.836Z,54.1
2017-08-28T23:58:05.568Z,54
